Terminal Aerodrome Forecast
Issued by NWS Wilmington, NC

Home | Current Version | Previous Version | Text Only | Print | Product List | Glossary On
Versions: 1 2 3 4 5 6 7 8 9 10 11 12 13 14 15 16
000
FTUS42 KILM 020800 AAA
TAFILM
TAF AMD
KILM 020856Z 0209/0306 VRB02KT P6SM SCT015 SCT250
      TEMPO 0209/0213 BKN015
     FM021300 27008KT P6SM VCSH SCT015 SCT050 SCT120
     FM021800 19011KT P6SM VCSH SCT050
     FM030200 21008KT P6SM FEW050 FEW250=

USA.gov is the U.S. government's official web portal to all federal, state and local government web resources and services.